createdAt,value
2023-02-06T00:00:50.629Z,63.80
2023-02-06T00:03:17.451Z,76.10
2023-02-06T00:05:43.922Z,68.40
2023-02-06T00:08:10.499Z,63.00
2023-02-06T00:10:37.163Z,58.10
2023-02-06T00:13:03.872Z,56.70
2023-02-06T00:15:30.302Z,59.70
2023-02-06T00:17:56.868Z,52.60
2023-02-06T00:20:23.403Z,56.80
2023-02-06T00:22:49.814Z,56.20
2023-02-06T00:25:16.295Z,56.10
2023-02-06T00:27:42.965Z,58.60
2023-02-06T00:30:10.124Z,56.30
2023-02-06T00:32:37.244Z,56.20
2023-02-06T00:35:04.501Z,53.40
2023-02-06T00:37:31.190Z,52.10
2023-02-06T00:39:57.877Z,53.60
2023-02-06T00:42:24.359Z,48.10
2023-02-06T00:44:50.962Z,51.60
2023-02-06T00:47:17.499Z,55.20
2023-02-06T00:49:43.932Z,48.50
2023-02-06T00:52:10.681Z,55.20
2023-02-06T00:54:37.137Z,51.60
2023-02-06T00:57:03.760Z,47.20
2023-02-06T00:59:30.539Z,49.20
2023-02-06T01:01:57.070Z,47.40
2023-02-06T01:04:23.587Z,49.50
2023-02-06T01:06:50.034Z,48.60
2023-02-06T01:09:16.566Z,43.40
2023-02-06T01:11:43.062Z,45.50
2023-02-06T01:14:09.566Z,51.10
2023-02-06T01:16:36.058Z,46.80
2023-02-06T01:19:02.625Z,51.60
2023-02-06T01:21:29.264Z,56.90
2023-02-06T01:23:55.772Z,56.90
2023-02-06T01:26:25.881Z,55.30
2023-02-06T01:28:53.614Z,50.90
2023-02-06T01:31:28.926Z,52.30
2023-02-06T01:33:57.264Z,54.20
2023-02-06T01:36:24.169Z,51.30
2023-02-06T01:38:51.541Z,52.40
2023-02-06T01:41:20.222Z,48.40
2023-02-06T01:44:06.708Z,50.20
2023-02-06T01:46:33.773Z,49.40
2023-02-06T01:49:02.065Z,50.20
2023-02-06T01:51:30.604Z,48.20
2023-02-06T01:54:02.107Z,50.30
2023-02-06T01:59:01.011Z,49.70
2023-02-06T02:01:27.616Z,52.20
2023-02-06T02:03:58.100Z,48.00
2023-02-06T02:06:26.587Z,47.20
2023-02-06T02:08:58.246Z,47.50
2023-02-06T02:11:32.199Z,47.50
2023-02-06T02:14:00.549Z,51.20
2023-02-06T02:16:45.897Z,50.60
2023-02-06T02:19:18.507Z,51.60
2023-02-06T02:21:54.068Z,54.80
2023-02-06T02:24:43.627Z,51.90
2023-02-06T02:27:32.513Z,55.10
2023-02-06T02:30:11.345Z,52.30
2023-02-06T02:32:56.484Z,52.00
2023-02-06T02:35:32.127Z,55.10
2023-02-06T02:38:11.131Z,57.80
2023-02-06T02:40:55.233Z,52.60
2023-02-06T02:43:43.025Z,57.50
2023-02-06T02:46:51.293Z,52.60
2023-02-06T02:49:22.694Z,58.10
2023-02-06T02:51:51.118Z,56.90
2023-02-06T02:54:17.997Z,66.00
2023-02-06T02:56:45.049Z,69.70
2023-02-06T02:59:16.768Z,71.30
2023-02-06T03:01:50.179Z,58.00
2023-02-06T03:04:22.911Z,65.20
2023-02-06T03:07:12.342Z,62.40
2023-02-06T03:10:16.607Z,59.90
2023-02-06T03:12:54.147Z,60.20
2023-02-06T03:15:27.015Z,50.90
2023-02-06T03:18:26.322Z,53.30
2023-02-06T03:20:53.249Z,57.50
2023-02-06T03:23:29.518Z,56.40
2023-02-06T03:26:00.699Z,54.60
2023-02-06T03:28:33.709Z,63.70
2023-02-06T03:31:05.563Z,59.40
2023-02-06T03:33:37.941Z,53.70
2023-02-06T03:36:04.852Z,61.60
2023-02-06T03:38:32.469Z,71.50
2023-02-06T03:41:02.097Z,63.10
2023-02-06T03:43:30.407Z,59.90
2023-02-06T03:46:01.693Z,58.50
2023-02-06T03:51:06.426Z,53.50
2023-02-06T03:53:34.520Z,61.00
2023-02-06T03:56:07.914Z,60.40
2023-02-06T03:58:34.745Z,63.10
2023-02-06T04:01:04.096Z,54.80
2023-02-06T04:03:31.108Z,56.60
2023-02-06T04:05:57.639Z,62.10
2023-02-06T04:08:24.511Z,56.90
2023-02-06T04:10:51.037Z,51.60
2023-02-06T04:13:17.574Z,61.60
2023-02-06T04:15:44.008Z,56.60
2023-02-06T04:18:10.556Z,51.10
2023-02-06T04:20:37.194Z,56.40
2023-02-06T04:23:03.615Z,48.40
2023-02-06T04:25:30.170Z,46.60
2023-02-06T04:27:56.764Z,54.10
2023-02-06T04:30:23.500Z,53.20
2023-02-06T04:32:50.104Z,49.10
2023-02-06T04:35:16.844Z,49.80
2023-02-06T04:37:43.266Z,51.50
2023-02-06T04:40:11.002Z,54.40
2023-02-06T04:42:38.028Z,52.20
2023-02-06T04:45:04.900Z,49.20
2023-02-06T04:47:31.394Z,53.40
2023-02-06T04:49:58.034Z,52.90
2023-02-06T04:52:24.600Z,54.60
2023-02-06T04:54:51.123Z,47.40
2023-02-06T04:57:17.633Z,52.00
2023-02-06T04:59:44.098Z,58.90
2023-02-06T05:02:10.518Z,51.60
2023-02-06T05:04:37.223Z,53.80
2023-02-06T05:07:05.492Z,54.80
2023-02-06T05:09:32.281Z,48.30
2023-02-06T05:11:59.567Z,51.70
2023-02-06T05:14:26.179Z,46.70
2023-02-06T05:16:52.606Z,55.30
2023-02-06T05:19:19.160Z,51.20
2023-02-06T05:21:45.727Z,58.60
2023-02-06T05:24:13.056Z,60.00
2023-02-06T05:26:39.543Z,64.90
2023-02-06T05:29:06.341Z,65.10
2023-02-06T05:31:33.011Z,69.60
2023-02-06T05:33:59.629Z,55.10
2023-02-06T05:36:26.428Z,63.40
2023-02-06T05:38:52.918Z,65.10
2023-02-06T05:41:19.438Z,60.20
2023-02-06T05:43:46.394Z,62.90
2023-02-06T05:46:13.456Z,65.50
2023-02-06T05:48:40.494Z,72.90
2023-02-06T05:51:06.959Z,77.50
2023-02-06T05:53:33.480Z,71.80
2023-02-06T05:56:00.016Z,77.20
2023-02-06T05:58:26.869Z,62.30
2023-02-06T06:00:53.399Z,64.40
2023-02-06T06:03:19.941Z,67.40
2023-02-06T06:05:46.788Z,73.20
2023-02-06T06:08:13.330Z,77.10
2023-02-06T06:10:39.840Z,85.30
2023-02-06T06:13:06.346Z,66.50
2023-02-06T06:15:32.845Z,70.70
2023-02-06T06:17:59.552Z,96.00
2023-02-06T06:20:26.044Z,79.30
2023-02-06T06:22:52.445Z,74.50
2023-02-06T06:25:20.512Z,97.60
2023-02-06T06:27:47.051Z,86.60
2023-02-06T06:30:13.830Z,72.10
2023-02-06T06:32:40.363Z,79.60
2023-02-06T06:35:07.014Z,88.20
2023-02-06T06:37:33.549Z,79.10
2023-02-06T06:40:00.208Z,81.20
2023-02-06T06:42:26.730Z,88.70
2023-02-06T06:44:53.360Z,78.00
2023-02-06T06:47:19.901Z,88.90
2023-02-06T06:49:46.353Z,73.70
2023-02-06T06:52:23.984Z,78.60
2023-02-06T06:54:52.394Z,81.70
2023-02-06T06:57:19.777Z,87.10
2023-02-06T06:59:46.262Z,87.00
2023-02-06T07:02:12.869Z,73.70
2023-02-06T07:04:39.495Z,74.50
2023-02-06T07:07:06.916Z,77.70
2023-02-06T07:09:33.396Z,58.70
2023-02-06T07:12:00.419Z,55.40
2023-02-06T07:14:26.893Z,67.20
2023-02-06T07:16:53.352Z,60.30
2023-02-06T07:19:19.966Z,70.70
2023-02-06T07:21:46.609Z,62.50
2023-02-06T07:24:13.351Z,57.90
2023-02-06T07:26:39.866Z,54.50
2023-02-06T07:29:06.384Z,65.70
2023-02-06T07:31:32.923Z,44.70
2023-02-06T07:34:00.328Z,50.50
2023-02-06T07:36:26.752Z,54.60
2023-02-06T07:38:53.185Z,59.60
2023-02-06T07:41:19.612Z,52.10
2023-02-06T07:43:46.049Z,49.30
2023-02-06T07:46:12.672Z,55.10
2023-02-06T07:48:39.358Z,50.50
2023-02-06T07:51:09.545Z,53.20
2023-02-06T07:53:37.164Z,48.60
2023-02-06T07:56:13.719Z,48.70
2023-02-06T07:58:41.090Z,49.20
2023-02-06T08:01:07.798Z,49.40
2023-02-06T08:03:34.561Z,53.30
2023-02-06T08:06:01.218Z,43.20
2023-02-06T08:08:27.955Z,51.80
2023-02-06T08:10:54.405Z,50.00
2023-02-06T08:13:20.997Z,46.30
2023-02-06T08:15:47.470Z,47.70
2023-02-06T08:18:13.905Z,48.50
2023-02-06T08:20:40.378Z,43.80
2023-02-06T08:23:06.831Z,52.30
2023-02-06T08:25:33.477Z,47.60
2023-02-06T08:28:00.123Z,47.70
2023-02-06T08:30:26.833Z,41.60
2023-02-06T08:32:53.450Z,46.90
2023-02-06T08:35:20.039Z,41.40
2023-02-06T08:37:46.476Z,47.00
2023-02-06T08:40:13.063Z,46.20
2023-02-06T08:42:39.564Z,51.70
2023-02-06T08:45:06.750Z,52.70
2023-02-06T08:47:33.155Z,49.20
2023-02-06T08:50:02.102Z,46.70
2023-02-06T08:52:29.679Z,50.10
2023-02-06T08:54:56.075Z,47.90
2023-02-06T08:57:22.612Z,58.40
2023-02-06T08:59:49.054Z,51.70
2023-02-06T09:02:15.656Z,52.20
2023-02-06T09:04:42.241Z,46.90
2023-02-06T09:07:08.725Z,49.70
2023-02-06T09:09:35.182Z,43.40
2023-02-06T09:12:01.861Z,42.30
2023-02-06T09:14:28.271Z,35.70
2023-02-06T09:16:55.036Z,33.80
2023-02-06T09:19:21.918Z,36.50
2023-02-06T09:21:48.427Z,33.20
2023-02-06T09:24:14.900Z,37.00
2023-02-06T09:26:58.412Z,29.70
2023-02-06T09:29:25.295Z,28.20
2023-02-06T09:31:51.787Z,31.50
2023-02-06T09:34:18.355Z,27.10
2023-02-06T09:36:44.788Z,37.20
2023-02-06T09:39:11.409Z,52.50
2023-02-06T09:41:52.678Z,55.50
2023-02-06T09:44:33.558Z,34.00
2023-02-06T09:47:03.554Z,30.20
2023-02-06T09:49:44.454Z,31.20
2023-02-06T09:52:14.165Z,43.80
2023-02-06T09:54:57.278Z,41.60
2023-02-06T09:57:42.364Z,26.60
2023-02-06T10:00:28.701Z,26.00
2023-02-06T10:03:34.532Z,25.40
2023-02-06T10:06:24.777Z,27.80
2023-02-06T10:09:03.355Z,36.60
2023-02-06T10:12:01.462Z,30.20
2023-02-06T10:15:03.191Z,23.40
2023-02-06T10:17:37.049Z,22.40
2023-02-06T10:20:15.830Z,25.20
2023-02-06T10:22:51.251Z,28.00
2023-02-06T10:25:21.415Z,24.90
2023-02-06T10:27:56.674Z,31.10
2023-02-06T10:31:02.526Z,24.50
2023-02-06T10:33:35.814Z,20.90
2023-02-06T10:36:39.731Z,20.40
2023-02-06T10:39:24.952Z,22.60
2023-02-06T10:42:11.613Z,19.50
2023-02-06T10:44:53.748Z,22.80
2023-02-06T10:47:38.279Z,18.20
2023-02-06T10:50:28.493Z,25.80
2023-02-06T10:52:59.733Z,23.30
2023-02-06T10:55:29.988Z,28.70
2023-02-06T10:58:15.852Z,21.50
2023-02-06T11:00:45.596Z,22.60
2023-02-06T11:03:20.357Z,24.70
2023-02-06T11:05:47.167Z,30.30
2023-02-06T11:08:22.716Z,28.60
2023-02-06T11:10:49.592Z,20.00
2023-02-06T11:13:26.030Z,19.70
2023-02-06T11:16:04.572Z,19.70
2023-02-06T11:18:40.172Z,20.60
2023-02-06T11:21:09.401Z,38.70
2023-02-06T11:23:36.357Z,35.00
2023-02-06T11:26:18.240Z,52.70
2023-02-06T11:28:59.816Z,25.10
2023-02-06T11:31:51.944Z,18.10
2023-02-06T11:34:29.005Z,33.80
2023-02-06T11:36:58.923Z,23.30
2023-02-06T11:39:36.882Z,43.60
2023-02-06T11:42:25.763Z,21.10
2023-02-06T11:44:52.219Z,15.40
2023-02-06T11:47:45.245Z,14.60
2023-02-06T11:50:14.455Z,16.60
2023-02-06T11:52:43.931Z,15.90
2023-02-06T11:55:27.184Z,16.10
2023-02-06T11:58:12.487Z,33.20
2023-02-06T12:00:51.335Z,24.20
2023-02-06T12:03:26.857Z,34.40
2023-02-06T12:05:55.756Z,24.30
2023-02-06T12:08:27.085Z,17.70
2023-02-06T12:11:01.111Z,15.90
2023-02-06T12:13:37.996Z,24.50
2023-02-06T12:16:07.289Z,19.00
2023-02-06T12:18:41.917Z,19.00
2023-02-06T12:21:16.981Z,79.90
2023-02-06T12:23:49.658Z,30.60
2023-02-06T12:26:19.979Z,83.60
2023-02-06T12:29:13.147Z,42.10
2023-02-06T12:31:42.426Z,29.50
2023-02-06T12:34:19.991Z,31.90
2023-02-06T12:36:56.555Z,48.10
2023-02-06T12:39:23.668Z,69.50
2023-02-06T12:42:05.828Z,108.00
2023-02-06T12:44:51.250Z,26.10
2023-02-06T12:47:32.469Z,115.80
2023-02-06T12:50:15.247Z,39.20
2023-02-06T12:52:51.313Z,27.50
2023-02-06T12:55:29.873Z,105.80
2023-02-06T12:57:56.812Z,30.90
2023-02-06T13:00:38.993Z,31.70
2023-02-06T13:03:20.948Z,22.90
2023-02-06T13:05:51.741Z,43.70
2023-02-06T13:08:56.185Z,28.30
2023-02-06T13:11:38.364Z,24.50
2023-02-06T13:14:18.330Z,48.20
2023-02-06T13:16:55.204Z,33.00
2023-02-06T13:19:24.104Z,22.40
2023-02-06T13:22:10.817Z,57.50
2023-02-06T13:24:39.865Z,57.90
2023-02-06T13:27:09.065Z,28.20
2023-02-06T13:29:44.771Z,29.70
2023-02-06T13:32:11.141Z,32.00
2023-02-06T13:34:49.894Z,39.40
2023-02-06T13:37:32.416Z,31.00
2023-02-06T13:40:23.870Z,28.60
2023-02-06T13:43:14.381Z,30.40
2023-02-06T13:45:56.926Z,25.80
2023-02-06T13:48:35.706Z,25.20
2023-02-06T13:51:17.802Z,26.00
2023-02-06T13:54:13.831Z,25.60
2023-02-06T13:57:08.690Z,25.60
2023-02-06T13:59:41.087Z,20.60
2023-02-06T14:02:16.410Z,26.30
2023-02-06T14:04:45.870Z,24.20
2023-02-06T14:07:31.048Z,19.40
2023-02-06T14:10:16.396Z,27.30
2023-02-06T14:13:04.713Z,25.30
2023-02-06T14:15:40.970Z,26.10
2023-02-06T14:18:14.433Z,30.00
2023-02-06T14:21:31.762Z,38.80
2023-02-06T14:24:19.215Z,28.60
2023-02-06T14:26:45.728Z,29.40
2023-02-06T14:29:20.313Z,33.00
2023-02-06T14:31:49.798Z,24.70
2023-02-06T14:34:41.500Z,33.60
2023-02-06T14:37:27.905Z,51.50
2023-02-06T14:39:56.957Z,38.50
2023-02-06T14:42:40.560Z,81.90
2023-02-06T14:45:22.847Z,64.10
2023-02-06T14:47:50.464Z,105.60
2023-02-06T14:50:24.354Z,27.90
2023-02-06T14:52:55.546Z,39.10
2023-02-06T14:55:32.571Z,57.50
2023-02-06T14:57:59.816Z,42.70
2023-02-06T15:00:27.298Z,31.40
2023-02-06T15:03:21.423Z,36.60
2023-02-06T15:05:59.646Z,31.10
2023-02-06T15:08:26.309Z,42.70
2023-02-06T15:11:01.280Z,33.80
2023-02-06T15:13:30.551Z,41.10
2023-02-06T15:15:57.470Z,33.90
2023-02-06T15:18:24.344Z,36.10
2023-02-06T15:21:13.725Z,35.30
2023-02-06T15:23:46.105Z,35.20
2023-02-06T15:26:47.045Z,34.90
2023-02-06T15:29:23.315Z,44.30
2023-02-06T15:31:51.986Z,34.90
2023-02-06T15:34:22.230Z,27.70
2023-02-06T15:36:49.085Z,50.40
2023-02-06T15:39:17.775Z,46.20
2023-02-06T15:41:50.140Z,48.40
2023-02-06T15:44:22.796Z,56.20
2023-02-06T15:46:50.997Z,55.30
2023-02-06T15:49:26.392Z,56.70
2023-02-06T15:51:54.941Z,42.70
2023-02-06T15:54:25.345Z,35.90
2023-02-06T15:56:58.809Z,29.60
2023-02-06T15:59:26.721Z,47.70
2023-02-06T16:01:55.589Z,40.80
2023-02-06T16:04:27.923Z,55.10
2023-02-06T16:07:18.140Z,89.50
2023-02-06T16:09:55.993Z,35.10
2023-02-06T16:12:23.437Z,39.30
2023-02-06T16:15:01.163Z,48.60
2023-02-06T16:17:35.062Z,39.80
2023-02-06T16:20:25.698Z,112.40
2023-02-06T16:22:52.917Z,124.40
2023-02-06T16:25:22.315Z,67.70
2023-02-06T16:27:50.062Z,62.40
2023-02-06T16:30:24.911Z,43.90
2023-02-06T16:32:54.675Z,51.00
2023-02-06T16:35:22.683Z,93.80
2023-02-06T16:37:52.125Z,110.70
2023-02-06T16:40:19.056Z,196.40
2023-02-06T16:42:46.633Z,248.90
2023-02-06T16:45:24.656Z,318.80
2023-02-06T16:47:51.247Z,195.10
2023-02-06T16:50:18.570Z,272.60
2023-02-06T16:52:54.277Z,292.30
2023-02-06T16:55:23.611Z,145.00
2023-02-06T16:57:54.842Z,68.60
2023-02-06T17:00:24.906Z,72.90
2023-02-06T17:02:52.546Z,69.10
2023-02-06T17:05:21.332Z,78.20
2023-02-06T17:07:48.696Z,116.40
2023-02-06T17:10:16.735Z,94.60
2023-02-06T17:12:43.710Z,120.90
2023-02-06T17:15:13.506Z,96.80
2023-02-06T17:17:40.540Z,106.50
2023-02-06T17:20:28.090Z,109.40
2023-02-06T17:22:54.949Z,139.70
2023-02-06T17:25:21.796Z,138.30
2023-02-06T17:27:48.369Z,150.00
2023-02-06T17:30:19.954Z,179.30
2023-02-06T17:35:13.703Z,164.00
2023-02-06T17:37:40.231Z,140.90
2023-02-06T17:40:08.248Z,121.00
2023-02-06T17:42:34.751Z,115.50
2023-02-06T17:45:01.384Z,113.30
2023-02-06T17:47:28.182Z,118.40
2023-02-06T17:49:54.809Z,123.60
2023-02-06T17:52:21.511Z,118.60
2023-02-06T17:54:47.967Z,113.50
2023-02-06T17:57:14.485Z,112.00
2023-02-06T17:59:41.157Z,120.20
2023-02-06T18:02:12.248Z,134.20
2023-02-06T18:04:39.019Z,124.50
2023-02-06T18:07:07.001Z,128.30
2023-02-06T18:09:33.730Z,131.40
2023-02-06T18:12:00.590Z,144.50
2023-02-06T18:14:27.323Z,189.00
2023-02-06T18:16:54.064Z,193.70
2023-02-06T18:19:20.915Z,215.50
2023-02-06T18:21:47.401Z,326.50
2023-02-06T18:24:14.093Z,269.60
2023-02-06T18:26:40.659Z,261.90
2023-02-06T18:29:07.093Z,228.80
2023-02-06T18:31:35.978Z,222.90
2023-02-06T18:34:05.070Z,207.30
2023-02-06T18:36:31.655Z,232.40
2023-02-06T18:38:58.442Z,217.90
2023-02-06T18:41:26.442Z,213.80
2023-02-06T18:43:52.959Z,185.60
2023-02-06T18:46:19.454Z,197.10
2023-02-06T18:48:46.453Z,222.60
2023-02-06T18:51:13.195Z,210.30
2023-02-06T18:53:39.833Z,203.30
2023-02-06T18:56:06.891Z,241.90
2023-02-06T18:58:33.835Z,223.10
2023-02-06T19:01:00.617Z,440.40
2023-02-06T19:03:27.186Z,498.80
2023-02-06T19:05:53.871Z,326.00
2023-02-06T19:08:20.406Z,389.40
2023-02-06T19:10:46.877Z,468.70
2023-02-06T19:13:13.588Z,402.10
2023-02-06T19:15:40.331Z,397.00
2023-02-06T19:18:07.178Z,383.50
2023-02-06T19:20:33.938Z,357.00
2023-02-06T19:23:00.416Z,348.10
2023-02-06T19:25:27.050Z,361.10
2023-02-06T19:27:54.053Z,367.40
2023-02-06T19:30:20.782Z,330.50
2023-02-06T19:32:47.550Z,333.70
2023-02-06T19:35:14.038Z,356.40
2023-02-06T19:37:40.726Z,321.30
2023-02-06T19:40:07.586Z,321.30
2023-02-06T19:42:34.355Z,301.20
2023-02-06T19:45:01.263Z,282.80
2023-02-06T19:47:28.115Z,351.10
2023-02-06T19:49:54.852Z,293.20
2023-02-06T19:52:21.800Z,274.30
2023-02-06T19:54:48.685Z,285.40
2023-02-06T19:57:15.459Z,326.90
2023-02-06T19:59:41.919Z,302.20
2023-02-06T20:02:13.077Z,290.30
2023-02-06T20:04:40.327Z,279.20
2023-02-06T20:07:07.265Z,361.50
2023-02-06T20:09:34.472Z,382.50
2023-02-06T20:12:00.952Z,397.00
2023-02-06T20:14:28.202Z,398.50
2023-02-06T20:16:54.946Z,402.00
2023-02-06T20:19:25.437Z,447.60
2023-02-06T20:21:58.099Z,445.70
2023-02-06T20:24:29.192Z,427.40
2023-02-06T20:26:59.792Z,389.50
2023-02-06T20:29:29.502Z,420.40
2023-02-06T20:31:57.200Z,437.00
2023-02-06T20:34:26.554Z,418.20
2023-02-06T20:36:53.859Z,418.40
2023-02-06T20:39:20.540Z,399.80
2023-02-06T20:41:49.050Z,399.60
2023-02-06T20:44:16.369Z,406.60
2023-02-06T20:46:43.319Z,388.70
2023-02-06T20:49:18.947Z,390.20
2023-02-06T20:51:45.730Z,390.60
2023-02-06T20:54:12.402Z,389.20
2023-02-06T20:56:41.310Z,427.60
2023-02-06T20:59:08.724Z,457.90
2023-02-06T21:01:35.440Z,404.70
2023-02-06T21:04:07.659Z,353.30
2023-02-06T21:06:36.009Z,281.50
2023-02-06T21:09:04.908Z,276.60
2023-02-06T21:11:34.441Z,258.40
2023-02-06T21:14:03.690Z,270.60
2023-02-06T21:16:32.170Z,277.30
2023-02-06T21:18:59.995Z,322.70
2023-02-06T21:21:27.204Z,344.70
2023-02-06T21:23:54.706Z,351.20
2023-02-06T21:26:21.858Z,387.40
2023-02-06T21:28:48.316Z,422.90
2023-02-06T21:31:18.516Z,415.60
2023-02-06T21:33:46.734Z,388.90
2023-02-06T21:36:13.818Z,391.50
2023-02-06T21:38:41.091Z,401.20
2023-02-06T21:41:14.206Z,415.70
2023-02-06T21:43:41.153Z,434.80
2023-02-06T21:46:07.944Z,434.10
2023-02-06T21:48:35.078Z,472.70
2023-02-06T21:51:12.747Z,437.30
2023-02-06T21:53:40.133Z,434.80
2023-02-06T21:56:09.110Z,447.60
2023-02-06T21:58:36.538Z,476.30
2023-02-06T22:01:03.893Z,405.50
2023-02-06T22:03:30.360Z,434.60
2023-02-06T22:06:02.351Z,412.10
2023-02-06T22:08:29.076Z,400.00
2023-02-06T22:10:55.618Z,387.20
2023-02-06T22:13:22.158Z,389.60
2023-02-06T22:15:49.138Z,409.90
2023-02-06T22:18:15.566Z,402.60
2023-02-06T22:20:42.084Z,402.30
2023-02-06T22:23:08.622Z,390.00
2023-02-06T22:25:37.019Z,369.90
2023-02-06T22:28:03.787Z,404.00
2023-02-06T22:30:30.481Z,376.60
2023-02-06T22:32:56.964Z,396.40
2023-02-06T22:35:23.460Z,390.00
2023-02-06T22:37:50.001Z,431.40
2023-02-06T22:40:16.994Z,373.90
2023-02-06T22:42:43.489Z,386.50
2023-02-06T22:45:10.279Z,421.30
2023-02-06T22:47:36.728Z,401.50
2023-02-06T22:50:04.032Z,402.20
2023-02-06T22:52:30.579Z,419.80
2023-02-06T22:54:56.987Z,375.50
2023-02-06T22:57:23.548Z,361.90
2023-02-06T22:59:50.081Z,359.70
2023-02-06T23:02:16.773Z,412.60
2023-02-06T23:04:43.384Z,366.70
2023-02-06T23:07:10.021Z,357.00
2023-02-06T23:09:38.080Z,333.00
2023-02-06T23:12:05.968Z,319.00
2023-02-06T23:14:33.402Z,327.10
2023-02-06T23:17:01.105Z,322.50
2023-02-06T23:19:28.439Z,308.10
2023-02-06T23:21:55.185Z,299.00
2023-02-06T23:24:21.893Z,308.40
2023-02-06T23:26:50.487Z,307.40
2023-02-06T23:29:19.281Z,306.20
2023-02-06T23:31:47.323Z,309.70
2023-02-06T23:34:15.042Z,316.40
2023-02-06T23:36:41.573Z,295.70
2023-02-06T23:39:08.064Z,292.10
2023-02-06T23:41:34.965Z,308.70
2023-02-06T23:44:04.223Z,289.00
2023-02-06T23:46:32.766Z,280.40
2023-02-06T23:48:59.780Z,402.30
2023-02-06T23:51:26.789Z,297.70
2023-02-06T23:53:53.782Z,300.00
2023-02-06T23:56:23.682Z,346.00
2023-02-06T23:58:51.394Z,360.40
